Time,TemperatureF,DewpointF,PressureIn,WindDirection,WindDirectionDegrees,WindSpeedMPH,WindSpeedGustMPH,Humidity,HourlyPrecipIn,Conditions,Clouds,dailyrainin,SolarRadiationWatts/m^2,SoftwareType,DateUTC
2013-07-02 00:22:00,72.0,49.0,-100.00,ESE,122,0.0,0.0,45,0.00,,,0.00,0.000000,,2013-07-02 07:22:00,
2013-07-02 00:33:00,72.0,49.0,-100.00,ESE,122,0.0,0.0,45,0.00,,,0.00,0.000000,,2013-07-02 07:33:00,
2013-07-02 00:44:00,72.0,49.0,-100.00,ESE,122,0.0,0.0,45,0.00,,,0.00,0.000000,,2013-07-02 07:44:00,
2013-07-02 00:52:00,72.0,49.0,-100.00,ESE,122,0.0,0.0,45,0.00,,,0.00,0.000000,,2013-07-02 07:52:00,
2013-07-02 01:22:00,71.0,49.0,-100.00,ESE,105,0.0,5.0,46,0.00,,,0.00,0.000000,,2013-07-02 08:22:00,
2013-07-02 01:33:00,71.0,49.0,-100.00,ESE,105,0.0,5.0,46,0.00,,,0.00,0.000000,,2013-07-02 08:33:00,
2013-07-02 01:44:00,71.0,49.0,-100.00,ESE,105,0.0,5.0,46,0.00,,,0.00,0.000000,,2013-07-02 08:44:00,
2013-07-02 01:53:00,71.0,49.0,-100.00,ESE,105,0.0,5.0,46,0.00,,,0.00,0.000000,,2013-07-02 08:53:00,
2013-07-02 02:22:00,71.0,49.0,-100.00,ESE,122,1.0,6.0,45,0.00,,,-99.99,0.000000,,2013-07-02 09:22:00,
2013-07-02 02:33:00,71.0,49.0,-100.00,ESE,122,1.0,6.0,45,0.00,,,-99.99,0.000000,,2013-07-02 09:33:00,
2013-07-02 02:43:00,71.0,49.0,-100.00,ESE,122,1.0,6.0,45,0.00,,,-99.99,0.000000,,2013-07-02 09:43:00,
2013-07-02 02:52:00,71.0,49.0,-100.00,ESE,122,1.0,6.0,45,0.00,,,-99.99,0.000000,,2013-07-02 09:52:00,
2013-07-02 03:22:00,71.0,49.0,-100.00,SE,137,1.0,5.0,46,0.00,,,-99.99,0.000000,,2013-07-02 10:22:00,
2013-07-02 03:33:00,71.0,49.0,-100.00,SE,137,1.0,5.0,46,0.00,,,-99.99,0.000000,,2013-07-02 10:33:00,
2013-07-02 03:43:00,71.0,49.0,-100.00,SE,137,1.0,5.0,46,0.00,,,-99.99,0.000000,,2013-07-02 10:43:00,
2013-07-02 03:52:00,71.0,49.0,-100.00,SE,137,1.0,5.0,46,0.00,,,-99.99,0.000000,,2013-07-02 10:52:00,
2013-07-02 04:22:00,71.0,49.0,-100.00,SE,124,2.0,6.0,45,0.00,,,0.00,0.000000,,2013-07-02 11:22:00,
2013-07-02 04:33:00,71.0,49.0,-100.00,SE,124,2.0,6.0,45,0.00,,,0.00,0.000000,,2013-07-02 11:33:00,
2013-07-02 04:42:00,71.0,49.0,-100.00,SE,124,2.0,6.0,45,0.00,,,0.00,0.000000,,2013-07-02 11:42:00,
2013-07-02 04:52:00,71.0,49.0,-100.00,SE,124,2.0,6.0,45,0.00,,,0.00,0.000000,,2013-07-02 11:52:00,
2013-07-02 05:23:00,71.0,49.0,-100.00,ESE,118,0.0,7.0,46,0.00,,,0.00,0.000000,,2013-07-02 12:23:00,
2013-07-02 05:33:00,71.0,49.0,-100.00,ESE,118,0.0,7.0,46,0.00,,,0.00,0.000000,,2013-07-02 12:33:00,
2013-07-02 05:43:00,71.0,49.0,-100.00,ESE,118,0.0,7.0,46,0.00,,,0.00,0.000000,,2013-07-02 12:43:00,
2013-07-02 05:52:00,71.0,49.0,-100.00,ESE,118,0.0,7.0,46,0.00,,,0.00,0.000000,,2013-07-02 12:52:00,
2013-07-02 06:22:00,71.0,49.0,-100.00,ESE,115,0.0,5.0,46,0.00,,,0.00,1.000000,,2013-07-02 13:22:00,
2013-07-02 06:34:00,71.0,49.0,-100.00,ESE,115,0.0,5.0,46,0.00,,,0.00,1.000000,,2013-07-02 13:34:00,
2013-07-02 06:43:00,71.0,49.0,-100.00,ESE,115,0.0,5.0,46,0.00,,,0.00,1.000000,,2013-07-02 13:43:00,
2013-07-02 06:52:00,71.0,49.0,-100.00,ESE,115,0.0,5.0,46,0.00,,,0.00,1.000000,,2013-07-02 13:52:00,
2013-07-02 07:22:00,70.0,50.0,-100.00,ESE,110,0.0,5.0,49,0.00,,,0.00,26.000000,,2013-07-02 14:22:00,
2013-07-02 07:33:00,70.0,50.0,-100.00,ESE,110,0.0,5.0,49,0.00,,,0.00,26.000000,,2013-07-02 14:33:00,
2013-07-02 07:43:00,70.0,50.0,-100.00,ESE,110,0.0,5.0,49,0.00,,,0.00,26.000000,,2013-07-02 14:43:00,
2013-07-02 07:53:00,70.0,50.0,-100.00,ESE,110,0.0,5.0,49,0.00,,,0.00,26.000000,,2013-07-02 14:53:00,
2013-07-02 08:22:00,77.0,53.0,-100.00,ESE,107,0.0,5.0,44,0.00,,,0.00,69.000000,,2013-07-02 15:22:00,
2013-07-02 08:33:00,77.0,53.0,-100.00,ESE,107,0.0,5.0,44,0.00,,,0.00,69.000000,,2013-07-02 15:33:00,
2013-07-02 08:44:00,77.0,53.0,-100.00,ESE,107,0.0,5.0,44,0.00,,,0.00,69.000000,,2013-07-02 15:44:00,
2013-07-02 08:53:00,77.0,53.0,-100.00,ESE,107,0.0,5.0,44,0.00,,,0.00,69.000000,,2013-07-02 15:53:00,
2013-07-02 09:52:00,89.0,50.0,-100.00,WSW,245,0.0,0.0,26,0.00,,,0.00,395.000000,,2013-07-02 16:52:00,
2013-07-02 10:33:00,89.0,53.0,-100.00,WNW,301,0.0,4.0,29,0.00,,,0.00,373.000000,,2013-07-02 17:33:00,
2013-07-02 10:43:00,89.0,53.0,-100.00,WNW,301,0.0,4.0,29,0.00,,,0.00,373.000000,,2013-07-02 17:43:00,
2013-07-02 10:53:00,89.0,53.0,-100.00,WNW,301,0.0,4.0,29,0.00,,,0.00,373.000000,,2013-07-02 17:53:00,
2013-07-02 11:23:00,88.0,52.0,-100.00,WNW,292,1.0,5.0,29,0.00,,,0.00,359.000000,,2013-07-02 18:23:00,
2013-07-02 11:34:00,88.0,52.0,-100.00,WNW,292,1.0,5.0,29,0.00,,,0.00,359.000000,,2013-07-02 18:34:00,
2013-07-02 11:43:00,88.0,52.0,-100.00,WNW,292,1.0,5.0,29,0.00,,,0.00,359.000000,,2013-07-02 18:43:00,
2013-07-02 11:53:00,88.0,52.0,-100.00,WNW,292,1.0,5.0,29,0.00,,,0.00,359.000000,,2013-07-02 18:53:00,
2013-07-02 12:34:00,90.0,51.0,-100.00,WNW,287,0.0,5.0,27,0.00,,,0.00,445.000000,,2013-07-02 19:34:00,
2013-07-02 12:43:00,90.0,51.0,-100.00,WNW,287,0.0,5.0,27,0.00,,,0.00,445.000000,,2013-07-02 19:43:00,
2013-07-02 12:53:00,90.0,51.0,-100.00,WNW,287,0.0,5.0,27,0.00,,,0.00,445.000000,,2013-07-02 19:53:00,
2013-07-02 13:22:00,95.0,52.0,-100.00,WNW,291,2.0,7.0,24,0.00,,,0.00,779.000000,,2013-07-02 20:22:00,
2013-07-02 13:52:00,95.0,52.0,-100.00,WNW,291,2.0,7.0,24,0.00,,,0.00,779.000000,,2013-07-02 20:52:00,
2013-07-02 14:22:00,96.0,52.0,-100.00,West,262,3.0,9.0,23,0.00,,,0.00,783.000000,,2013-07-02 21:22:00,
2013-07-02 14:33:00,96.0,52.0,-100.00,West,262,3.0,9.0,23,0.00,,,0.00,783.000000,,2013-07-02 21:33:00,
2013-07-02 14:43:00,96.0,52.0,-100.00,West,262,3.0,9.0,23,0.00,,,0.00,783.000000,,2013-07-02 21:43:00,
2013-07-02 14:52:00,96.0,52.0,-100.00,West,262,3.0,9.0,23,0.00,,,0.00,783.000000,,2013-07-02 21:52:00,
2013-07-02 15:22:00,99.0,52.0,-100.00,SSE,147,4.0,9.0,21,0.00,,,0.00,1093.000000,,2013-07-02 22:22:00,
2013-07-02 15:33:00,99.0,52.0,-100.00,SSE,147,4.0,9.0,21,0.00,,,0.00,1093.000000,,2013-07-02 22:33:00,
2013-07-02 15:43:00,99.0,52.0,-100.00,SSE,147,4.0,9.0,21,0.00,,,0.00,1093.000000,,2013-07-02 22:43:00,
2013-07-02 15:53:00,99.0,52.0,-100.00,SSE,147,4.0,9.0,21,0.00,,,0.00,1093.000000,,2013-07-02 22:53:00,
2013-07-02 16:33:00,100.0,50.0,-100.00,NE,50,4.0,12.0,19,0.00,,,0.00,942.000000,,2013-07-02 23:33:00,
2013-07-02 16:44:00,100.0,50.0,-100.00,NE,50,4.0,12.0,19,0.00,,,0.00,942.000000,,2013-07-02 23:44:00,
2013-07-02 16:52:00,100.0,50.0,-100.00,NE,50,4.0,12.0,19,0.00,,,0.00,942.000000,,2013-07-02 23:52:00,
2013-07-02 17:22:00,99.0,47.0,-100.00,West,273,5.0,12.0,17,0.00,,,0.00,791.000000,,2013-07-03 00:22:00,
2013-07-02 17:33:00,99.0,47.0,-100.00,West,273,5.0,12.0,17,0.00,,,0.00,791.000000,,2013-07-03 00:33:00,
2013-07-02 17:44:00,99.0,47.0,-100.00,West,273,5.0,12.0,17,0.00,,,0.00,791.000000,,2013-07-03 00:44:00,
2013-07-02 17:52:00,99.0,47.0,-100.00,West,273,5.0,12.0,17,0.00,,,0.00,791.000000,,2013-07-03 00:52:00,
2013-07-02 18:22:00,98.0,46.0,-100.00,WNW,287,4.0,12.0,17,0.00,,,0.00,526.000000,,2013-07-03 01:22:00,
2013-07-02 18:33:00,98.0,46.0,-100.00,WNW,287,4.0,12.0,17,0.00,,,0.00,526.000000,,2013-07-03 01:33:00,
2013-07-02 18:42:00,98.0,46.0,-100.00,WNW,287,4.0,12.0,17,0.00,,,0.00,526.000000,,2013-07-03 01:42:00,
2013-07-02 18:53:00,98.0,46.0,-100.00,WNW,287,4.0,12.0,17,0.00,,,0.00,526.000000,,2013-07-03 01:53:00,
2013-07-02 19:36:00,92.0,45.0,-100.00,NW,316,3.0,15.0,20,0.00,,,0.00,190.000000,,2013-07-03 02:36:00,
2013-07-02 19:43:00,92.0,45.0,-100.00,NW,316,3.0,15.0,20,0.00,,,0.00,190.000000,,2013-07-03 02:43:00,
2013-07-02 19:53:00,92.0,45.0,-100.00,NW,316,3.0,15.0,20,0.00,,,0.00,190.000000,,2013-07-03 02:53:00,
2013-07-02 20:25:00,87.0,45.0,-100.00,WNW,303,0.0,8.0,23,0.00,,,0.00,62.000000,,2013-07-03 03:25:00,
2013-07-02 20:35:00,87.0,45.0,-100.00,WNW,303,0.0,8.0,23,0.00,,,0.00,62.000000,,2013-07-03 03:35:00,
2013-07-02 20:44:00,87.0,45.0,-100.00,WNW,303,0.0,8.0,23,0.00,,,0.00,62.000000,,2013-07-03 03:44:00,
2013-07-02 20:53:00,87.0,45.0,-100.00,WNW,303,0.0,8.0,23,0.00,,,0.00,62.000000,,2013-07-03 03:53:00,
2013-07-02 21:22:00,81.0,45.0,-100.00,ESE,120,1.0,4.0,28,0.00,,,0.00,4.000000,,2013-07-03 04:22:00,
2013-07-02 21:33:00,81.0,45.0,-100.00,ESE,120,1.0,4.0,28,0.00,,,0.00,4.000000,,2013-07-03 04:33:00,
2013-07-02 21:43:00,81.0,45.0,-100.00,ESE,120,1.0,4.0,28,0.00,,,0.00,4.000000,,2013-07-03 04:43:00,
2013-07-02 21:52:00,81.0,45.0,-100.00,ESE,120,1.0,4.0,28,0.00,,,0.00,4.000000,,2013-07-03 04:52:00,
2013-07-02 22:23:00,78.0,45.0,-100.00,SE,129,1.0,5.0,31,0.00,,,0.00,0.000000,,2013-07-03 05:23:00,
2013-07-02 22:35:00,78.0,45.0,-100.00,SE,129,1.0,5.0,31,0.00,,,0.00,0.000000,,2013-07-03 05:35:00,
2013-07-02 22:44:00,78.0,45.0,-100.00,SE,129,1.0,5.0,31,0.00,,,0.00,0.000000,,2013-07-03 05:44:00,
2013-07-02 22:54:00,78.0,45.0,-100.00,SE,129,1.0,5.0,31,0.00,,,0.00,0.000000,,2013-07-03 05:54:00,
2013-07-02 23:24:00,75.0,44.0,-100.00,SE,129,1.0,4.0,33,0.00,,,0.00,0.000000,,2013-07-03 06:24:00,
2013-07-02 23:45:00,75.0,44.0,-100.00,SE,129,1.0,4.0,33,0.00,,,0.00,0.000000,,2013-07-03 06:45:00,
2013-07-02 23:54:00,75.0,44.0,-100.00,SE,129,1.0,4.0,33,0.00,,,0.00,0.000000,,2013-07-03 06:54:00,